Kezdőlap
METAR-TAF:

METAR-TAF

Repülőterek :

Florianópolis, Santa Catarina, Brazília

földrajzi szélesség: 27-40S, földrajzi hosszúság: 048-33W, magasság: 5 m

Jelenlegi meteorológiai megfigyelések

A jelentés 18 perccel ezelõtt készült, 16:00 UTC
Észak-északkeleti szél 11 kt
Hőmérséklet 29°C
Páratartalom 70%
Légköri nyomás 1007 hPa
Látótávolság 10 km, vagy több
felhőtlen 1500 m magasságban, és nincs gomolyfelhõ

METAR: SBFL 221600Z 02011KT CAVOK 29/23 Q1007

Idő: 14:18 (16:18 UTC)

Előrejelzés

A jelentés 7 órával és 33 perccel ezelõtt készült, 08:45 UTC
Az előrejelzés 22-én 12 óra UTC és 23-én 12 óra UTC között érvényes
Észak-északnyugati szél 8 kt
Látótávolság 10 km, vagy több
Szórványos felhőzet 3000 lábon

TAF: SBFL 220845Z 2212/2312 34008KT 9999 SCT030 TX32/2217Z TN23/2308Z RMK PEB

Meteorológiai megfigyelések és előrejelzések több, mint 4000 repülőtéren (METAR és TAF jelentéseket).

A térképen piros és sárga pontok jelzik az elérhető meteorológiai állomásokat.

Mozgassa az egeret a pont fölött, hogy megjelenjen az állomás neve.

Azután kattintson az időjárási megfigyelések és előrejelzések megtekintéséhez.

A térkép megváltoztatása: kattintson a fekete keresztel jelölt zöld gombra ráközelítéshez, a vonallal jelölt zöld gombra távolításhoz, vagy a zöld nyilakra a szomszédos térképek eléréséhez.


METAR-TAF: